Time,TemperatureF,DewpointF,PressureIn,WindDirection,WindDirectionDegrees,WindSpeedMPH,WindSpeedGustMPH,Humidity,HourlyPrecipIn,Conditions,Clouds,dailyrainin,SoftwareType,DateUTC
2013-05-15 00:03:00,67.9,52.5,29.91,South,190,0.7,0.9,58,0.00,,,0.00,WUHU216HW,2013-05-15 07:03:00,
2013-05-15 00:08:00,67.7,52.8,29.91,SSW,203,0.4,0.4,59,0.00,,,0.00,WUHU216HW,2013-05-15 07:08:00,
2013-05-15 00:13:00,67.5,52.2,29.91,North,0,0.0,0.0,58,0.00,,,0.00,WUHU216HW,2013-05-15 07:13:00,
2013-05-15 00:18:00,67.3,52.5,29.91,North,0,0.0,0.0,59,0.00,,,0.00,WUHU216HW,2013-05-15 07:18:00,
2013-05-15 00:23:00,67.3,52.5,29.91,North,0,0.0,0.0,59,0.00,,,0.00,WUHU216HW,2013-05-15 07:23:00,
2013-05-15 00:28:00,67.0,52.2,29.91,North,0,0.0,0.0,59,0.00,,,0.00,WUHU216HW,2013-05-15 07:28:00,
2013-05-15 00:33:00,66.8,52.5,29.91,North,0,0.0,0.0,60,0.00,,,0.00,WUHU216HW,2013-05-15 07:33:00,
2013-05-15 00:38:00,66.6,52.7,29.92,North,0,0.0,0.0,61,0.00,,,0.00,WUHU216HW,2013-05-15 07:38:00,
2013-05-15 00:43:00,66.2,52.8,29.92,SE,125,0.4,0.4,62,0.00,,,0.00,WUHU216HW,2013-05-15 07:43:00,
2013-05-15 00:48:00,66.2,53.6,29.92,SE,134,0.5,0.9,64,0.00,,,0.00,WUHU216HW,2013-05-15 07:48:00,
2013-05-15 00:53:00,66.2,53.3,29.92,ESE,116,0.3,0.4,63,0.00,,,0.00,WUHU216HW,2013-05-15 07:53:00,
2013-05-15 00:58:00,66.4,53.0,29.92,North,0,0.0,0.0,62,0.00,,,0.00,WUHU216HW,2013-05-15 07:58:00,
2013-05-15 01:03:00,66.2,52.8,29.92,WSW,248,0.4,0.4,62,0.00,,,0.00,WUHU216HW,2013-05-15 08:03:00,
2013-05-15 01:08:00,66.2,52.5,29.92,NW,315,0.3,0.4,61,0.00,,,0.00,WUHU216HW,2013-05-15 08:08:00,
2013-05-15 01:13:00,65.9,52.9,29.92,ENE,78,0.5,0.7,63,0.00,,,0.00,WUHU216HW,2013-05-15 08:13:00,
2013-05-15 01:18:00,65.5,53.4,29.92,ENE,68,0.6,1.1,65,0.00,,,0.00,WUHU216HW,2013-05-15 08:18:00,
2013-05-15 01:23:00,65.3,52.8,29.92,North,0,0.0,0.0,64,0.00,,,0.00,WUHU216HW,2013-05-15 08:23:00,
2013-05-15 01:28:00,65.2,52.7,29.92,North,0,0.0,0.0,64,0.00,,,0.00,WUHU216HW,2013-05-15 08:28:00,
2013-05-15 01:33:00,65.0,52.9,29.92,North,0,0.0,0.0,65,0.00,,,0.00,WUHU216HW,2013-05-15 08:33:00,
2013-05-15 01:38:00,65.0,52.9,29.92,North,0,0.0,0.0,65,0.00,,,0.00,WUHU216HW,2013-05-15 08:38:00,
2013-05-15 01:43:00,65.0,52.5,29.92,North,0,0.0,0.0,64,0.00,,,0.00,WUHU216HW,2013-05-15 08:43:00,
2013-05-15 01:48:00,64.8,52.3,29.92,North,0,0.0,0.0,64,0.00,,,0.00,WUHU216HW,2013-05-15 08:48:00,
2013-05-15 01:53:00,64.8,52.3,29.92,North,0,0.0,0.0,64,0.00,,,0.00,WUHU216HW,2013-05-15 08:53:00,
2013-05-15 01:58:00,64.4,52.4,29.92,North,0,0.0,0.0,65,0.00,,,0.00,WUHU216HW,2013-05-15 08:58:00,
2013-05-15 02:03:00,64.4,52.4,29.92,SE,135,0.4,0.4,65,0.00,,,0.00,WUHU216HW,2013-05-15 09:03:00,
2013-05-15 02:08:00,64.4,52.8,29.92,East,83,0.4,0.7,66,0.00,,,0.00,WUHU216HW,2013-05-15 09:08:00,
2013-05-15 02:13:00,64.8,52.8,29.92,SE,138,0.2,0.2,65,0.00,,,0.00,WUHU216HW,2013-05-15 09:13:00,
2013-05-15 02:18:00,65.2,52.7,29.92,North,0,0.0,0.0,64,0.00,,,0.00,WUHU216HW,2013-05-15 09:18:00,
2013-05-15 02:23:00,65.0,52.0,29.93,North,0,0.0,0.0,63,0.00,,,0.00,WUHU216HW,2013-05-15 09:23:00,
2013-05-15 02:28:00,64.8,51.8,29.92,North,0,0.0,0.0,63,0.00,,,0.00,WUHU216HW,2013-05-15 09:28:00,
2013-05-15 02:33:00,64.6,51.7,29.93,North,0,0.0,0.0,63,0.00,,,0.00,WUHU216HW,2013-05-15 09:33:00,
2013-05-15 02:38:00,64.3,51.8,29.93,North,0,0.0,0.0,64,0.00,,,0.00,WUHU216HW,2013-05-15 09:38:00,
2013-05-15 02:43:00,63.7,51.7,29.93,North,0,0.0,0.0,65,0.00,,,0.00,WUHU216HW,2013-05-15 09:43:00,
2013-05-15 02:48:00,63.5,52.4,29.93,North,0,0.0,0.0,67,0.00,,,0.00,WUHU216HW,2013-05-15 09:48:00,
2013-05-15 02:53:00,63.4,51.8,29.93,North,0,0.0,0.0,66,0.00,,,0.00,WUHU216HW,2013-05-15 09:53:00,
2013-05-15 02:58:00,63.4,51.8,29.93,North,0,0.0,0.0,66,0.00,,,0.00,WUHU216HW,2013-05-15 09:58:00,
2013-05-15 03:03:00,63.0,51.4,29.93,North,0,0.0,0.0,66,0.00,,,0.00,WUHU216HW,2013-05-15 10:03:00,
2013-05-15 03:08:00,62.6,51.1,29.94,North,0,0.0,0.0,66,0.00,,,0.00,WUHU216HW,2013-05-15 10:08:00,
2013-05-15 03:13:00,62.6,51.5,29.94,North,0,0.0,0.0,67,0.00,,,0.00,WUHU216HW,2013-05-15 10:13:00,
2013-05-15 03:18:00,62.3,51.2,29.93,North,0,0.0,0.0,67,0.00,,,0.00,WUHU216HW,2013-05-15 10:18:00,
2013-05-15 03:23:00,62.3,51.2,29.94,North,0,0.0,0.0,67,0.00,,,0.00,WUHU216HW,2013-05-15 10:23:00,
2013-05-15 03:28:00,62.3,51.2,29.93,North,0,0.0,0.0,67,0.00,,,0.00,WUHU216HW,2013-05-15 10:28:00,
2013-05-15 03:33:00,62.5,51.3,29.93,North,0,0.0,0.0,67,0.00,,,0.00,WUHU216HW,2013-05-15 10:33:00,
2013-05-15 03:38:00,62.3,51.2,29.94,North,0,0.0,0.0,67,0.00,,,0.00,WUHU216HW,2013-05-15 10:38:00,
2013-05-15 03:43:00,62.3,51.6,29.93,North,0,0.0,0.0,68,0.00,,,0.00,WUHU216HW,2013-05-15 10:43:00,
2013-05-15 03:48:00,62.1,51.4,29.94,North,0,0.0,0.0,68,0.00,,,0.00,WUHU216HW,2013-05-15 10:48:00,
2013-05-15 03:53:00,61.9,51.3,29.93,North,0,0.0,0.0,68,0.00,,,0.00,WUHU216HW,2013-05-15 10:53:00,
2013-05-15 03:58:00,61.7,51.1,29.93,North,0,0.0,0.0,68,0.00,,,0.00,WUHU216HW,2013-05-15 10:58:00,
2013-05-15 04:03:00,61.7,51.5,29.93,North,0,0.0,0.0,69,0.00,,,0.00,WUHU216HW,2013-05-15 11:03:00,
2013-05-15 04:08:00,61.9,51.7,29.94,North,0,0.0,0.0,69,0.00,,,0.00,WUHU216HW,2013-05-15 11:08:00,
2013-05-15 04:13:00,61.7,51.5,29.94,North,0,0.0,0.0,69,0.00,,,0.00,WUHU216HW,2013-05-15 11:13:00,
2013-05-15 04:18:00,61.4,51.2,29.94,North,0,0.0,0.0,69,0.00,,,0.00,WUHU216HW,2013-05-15 11:18:00,
2013-05-15 04:23:00,61.2,51.0,29.93,North,0,0.0,0.0,69,0.00,,,0.00,WUHU216HW,2013-05-15 11:23:00,
2013-05-15 04:28:00,60.8,50.7,29.93,North,0,0.0,0.0,69,0.00,,,0.00,WUHU216HW,2013-05-15 11:28:00,
2013-05-15 04:33:00,61.0,50.9,29.93,North,0,0.0,0.0,69,0.00,,,0.00,WUHU216HW,2013-05-15 11:33:00,
2013-05-15 04:38:00,61.0,50.9,29.93,North,0,0.0,0.0,69,0.00,,,0.00,WUHU216HW,2013-05-15 11:38:00,
2013-05-15 04:43:00,61.2,51.0,29.93,North,0,0.0,0.0,69,0.00,,,0.00,WUHU216HW,2013-05-15 11:43:00,
2013-05-15 04:48:00,61.0,50.9,29.93,North,0,0.0,0.0,69,0.00,,,0.00,WUHU216HW,2013-05-15 11:48:00,
2013-05-15 04:53:00,61.0,50.9,29.94,SSW,207,0.5,0.7,69,0.00,,,0.00,WUHU216HW,2013-05-15 11:53:00,
2013-05-15 04:59:00,61.0,50.9,29.94,SSE,158,0.4,0.4,69,0.00,,,0.00,WUHU216HW,2013-05-15 11:59:00,
2013-05-15 05:04:00,60.8,50.7,29.94,SW,234,0.3,0.7,69,0.00,,,0.00,WUHU216HW,2013-05-15 12:04:00,
2013-05-15 05:09:00,60.8,50.7,29.94,South,183,0.7,1.6,69,0.00,,,0.00,WUHU216HW,2013-05-15 12:09:00,
2013-05-15 05:14:00,60.5,50.3,29.94,North,0,0.0,0.0,69,0.00,,,0.00,WUHU216HW,2013-05-15 12:14:00,
2013-05-15 05:19:00,60.1,50.0,29.94,North,0,0.0,0.0,69,0.00,,,0.00,WUHU216HW,2013-05-15 12:19:00,
2013-05-15 05:24:00,59.9,50.2,29.95,North,0,0.0,0.0,70,0.00,,,0.00,WUHU216HW,2013-05-15 12:24:00,
2013-05-15 05:29:00,59.8,50.0,29.95,North,0,0.0,0.0,70,0.00,,,0.00,WUHU216HW,2013-05-15 12:29:00,
2013-05-15 05:34:00,59.6,50.2,29.95,North,0,0.0,0.0,71,0.00,,,0.00,WUHU216HW,2013-05-15 12:34:00,
2013-05-15 05:39:00,59.6,50.2,29.95,North,0,0.0,0.0,71,0.00,,,0.00,WUHU216HW,2013-05-15 12:39:00,
2013-05-15 05:44:00,59.6,50.6,29.95,North,0,0.0,0.0,72,0.00,,,0.00,WUHU216HW,2013-05-15 12:44:00,
2013-05-15 05:49:00,59.8,50.4,29.95,North,0,0.0,0.0,71,0.00,,,0.00,WUHU216HW,2013-05-15 12:49:00,
2013-05-15 05:54:00,59.8,50.4,29.95,North,0,0.0,0.0,71,0.00,,,0.00,WUHU216HW,2013-05-15 12:54:00,
2013-05-15 05:59:00,59.8,50.4,29.95,North,0,0.0,0.0,71,0.00,,,0.00,WUHU216HW,2013-05-15 12:59:00,
2013-05-15 06:04:00,59.8,50.4,29.95,North,0,0.0,0.0,71,0.00,,,0.00,WUHU216HW,2013-05-15 13:04:00,
2013-05-15 06:09:00,59.9,50.2,29.95,North,0,0.0,0.0,70,0.00,,,0.00,WUHU216HW,2013-05-15 13:09:00,
2013-05-15 06:14:00,60.1,50.8,29.96,North,0,0.0,0.0,71,0.00,,,0.00,WUHU216HW,2013-05-15 13:14:00,
2013-05-15 06:20:00,60.8,51.5,29.96,North,0,0.0,0.0,71,0.00,,,0.00,WUHU216HW,2013-05-15 13:20:00,
2013-05-15 06:25:00,62.5,52.6,29.96,North,0,0.0,0.0,70,0.00,,,0.00,WUHU216HW,2013-05-15 13:25:00,
2013-05-15 06:30:00,64.3,53.5,29.96,North,0,0.0,0.0,68,0.00,,,0.00,WUHU216HW,2013-05-15 13:30:00,
2013-05-15 06:35:00,65.7,54.5,29.96,North,0,0.0,0.0,67,0.00,,,0.00,WUHU216HW,2013-05-15 13:35:00,
2013-05-15 06:40:00,67.3,54.7,29.96,North,0,0.0,0.0,64,0.00,,,0.00,WUHU216HW,2013-05-15 13:40:00,
2013-05-15 06:45:00,68.2,54.7,29.96,ESE,121,0.3,0.4,62,0.00,,,0.00,WUHU216HW,2013-05-15 13:45:00,
2013-05-15 06:50:00,69.5,54.1,29.96,ESE,116,0.3,0.4,58,0.00,,,0.00,WUHU216HW,2013-05-15 13:50:00,
2013-05-15 06:55:00,70.2,55.3,29.97,SE,136,0.6,1.1,59,0.00,,,0.00,WUHU216HW,2013-05-15 13:55:00,
2013-05-15 07:00:00,72.4,56.7,29.97,SSE,157,0.9,1.6,58,0.00,,,0.00,WUHU216HW,2013-05-15 14:00:00,
2013-05-15 07:05:00,76.0,58.6,29.97,South,175,1.5,2.0,55,0.00,,,0.00,WUHU216HW,2013-05-15 14:05:00,
2013-05-15 07:10:00,78.8,59.2,29.97,South,187,1.2,2.0,51,0.00,,,0.00,WUHU216HW,2013-05-15 14:10:00,
2013-05-15 07:15:00,80.6,58.5,29.97,South,191,2.0,3.1,47,0.00,,,0.00,WUHU216HW,2013-05-15 14:15:00,
2013-05-15 07:20:00,81.4,59.1,29.97,South,183,2.0,3.8,47,0.00,,,0.00,WUHU216HW,2013-05-15 14:20:00,
2013-05-15 07:25:00,82.8,59.9,29.97,South,170,2.0,3.4,46,0.00,,,0.00,WUHU216HW,2013-05-15 14:25:00,
2013-05-15 07:30:00,83.3,59.8,29.97,South,170,1.8,2.9,45,0.00,,,0.00,WUHU216HW,2013-05-15 14:30:00,
2013-05-15 07:35:00,83.5,58.7,29.97,SSW,201,1.9,3.6,43,0.00,,,0.00,WUHU216HW,2013-05-15 14:35:00,
2013-05-15 07:40:00,84.1,58.5,29.97,SSW,204,2.3,3.4,42,0.00,,,0.00,WUHU216HW,2013-05-15 14:40:00,
2013-05-15 07:45:00,82.4,56.4,29.98,South,180,2.6,3.8,41,0.00,,,0.00,WUHU216HW,2013-05-15 14:45:00,
2013-05-15 07:50:00,79.4,54.3,29.98,South,169,3.1,4.3,42,0.00,,,0.00,WUHU216HW,2013-05-15 14:50:00,
2013-05-15 07:55:00,80.3,56.4,29.98,SSW,213,2.8,4.0,44,0.00,,,0.00,WUHU216HW,2013-05-15 14:55:00,
2013-05-15 08:01:00,81.0,55.7,29.99,SSE,159,2.9,4.0,42,0.00,,,0.00,WUHU216HW,2013-05-15 15:01:00,
2013-05-15 08:06:00,81.5,56.8,29.98,SSW,208,2.8,4.0,43,0.00,,,0.00,WUHU216HW,2013-05-15 15:06:00,
2013-05-15 08:11:00,83.2,57.1,29.99,SSW,194,2.2,3.6,41,0.00,,,0.00,WUHU216HW,2013-05-15 15:11:00,
2013-05-15 08:16:00,82.4,55.8,29.99,SSW,195,2.0,3.4,40,0.00,,,0.00,WUHU216HW,2013-05-15 15:16:00,
2013-05-15 08:21:00,79.9,54.2,29.99,SSW,203,1.6,3.4,41,0.00,,,0.00,WUHU216HW,2013-05-15 15:21:00,
2013-05-15 08:26:00,78.1,54.4,29.99,SSW,197,1.9,3.4,44,0.00,,,0.00,WUHU216HW,2013-05-15 15:26:00,
2013-05-15 08:31:00,77.4,54.4,29.99,South,187,1.5,2.7,45,0.00,,,0.00,WUHU216HW,2013-05-15 15:31:00,
2013-05-15 08:36:00,76.9,53.8,29.99,SSE,168,2.5,4.0,45,0.00,,,0.00,WUHU216HW,2013-05-15 15:36:00,
2013-05-15 08:41:00,76.9,55.1,29.99,SW,216,1.3,3.4,47,0.00,,,0.00,WUHU216HW,2013-05-15 15:41:00,
2013-05-15 08:46:00,77.6,55.1,29.99,South,184,2.0,2.7,46,0.00,,,0.00,WUHU216HW,2013-05-15 15:46:00,
2013-05-15 08:51:00,78.3,55.7,29.99,South,180,1.8,3.4,46,0.00,,,0.00,WUHU216HW,2013-05-15 15:51:00,
2013-05-15 08:56:00,78.8,55.0,29.99,SSE,150,1.6,2.9,44,0.00,,,0.00,WUHU216HW,2013-05-15 15:56:00,
2013-05-15 09:01:00,78.8,55.0,29.99,SSE,168,1.9,2.7,44,0.00,,,0.00,WUHU216HW,2013-05-15 16:01:00,
2013-05-15 09:06:00,79.0,55.2,29.99,SSE,165,1.6,3.1,44,0.00,,,0.00,WUHU216HW,2013-05-15 16:06:00,
2013-05-15 09:11:00,79.0,55.2,29.99,SSW,197,2.2,4.0,44,0.00,,,0.00,WUHU216HW,2013-05-15 16:11:00,
2013-05-15 09:16:00,79.2,56.0,29.99,SSW,197,2.7,3.6,45,0.00,,,0.00,WUHU216HW,2013-05-15 16:16:00,
2013-05-15 09:22:00,79.6,56.3,29.99,South,178,1.8,4.0,45,0.00,,,0.00,WUHU216HW,2013-05-15 16:22:00,
2013-05-15 09:27:00,80.1,56.2,29.99,SSE,168,1.8,3.6,44,0.00,,,0.00,WUHU216HW,2013-05-15 16:27:00,
2013-05-15 09:32:00,80.1,55.5,29.99,SSE,157,2.4,3.4,43,0.00,,,0.00,WUHU216HW,2013-05-15 16:32:00,
2013-05-15 09:37:00,80.3,56.4,29.99,SSE,160,2.0,3.6,44,0.00,,,0.00,WUHU216HW,2013-05-15 16:37:00,
2013-05-15 09:42:00,80.6,56.0,29.99,South,189,2.0,3.4,43,0.00,,,0.00,WUHU216HW,2013-05-15 16:42:00,
2013-05-15 09:47:00,81.4,56.7,29.99,SSW,210,2.9,4.0,43,0.00,,,0.00,WUHU216HW,2013-05-15 16:47:00,
2013-05-15 09:52:00,81.4,56.7,29.99,SSE,155,2.7,4.7,43,0.00,,,0.00,WUHU216HW,2013-05-15 16:52:00,
2013-05-15 09:57:00,81.0,55.1,29.99,South,186,2.6,4.5,41,0.00,,,0.00,WUHU216HW,2013-05-15 16:57:00,
2013-05-15 10:03:00,80.6,55.5,29.99,South,191,3.0,4.7,42,0.00,,,0.00,WUHU216HW,2013-05-15 17:03:00,
2013-05-15 10:08:00,81.0,55.7,29.99,SSW,204,2.7,5.4,42,0.00,,,0.00,WUHU216HW,2013-05-15 17:08:00,
2013-05-15 10:13:00,81.2,55.9,29.98,South,171,3.3,4.9,42,0.00,,,0.00,WUHU216HW,2013-05-15 17:13:00,
2013-05-15 10:18:00,81.4,55.4,29.98,SSW,195,2.5,3.6,41,0.00,,,0.00,WUHU216HW,2013-05-15 17:18:00,
2013-05-15 10:23:00,82.1,56.1,29.98,South,191,2.8,4.7,41,0.00,,,0.00,WUHU216HW,2013-05-15 17:23:00,
2013-05-15 10:28:00,82.8,56.2,29.98,South,182,2.4,4.5,40,0.00,,,0.00,WUHU216HW,2013-05-15 17:28:00,
2013-05-15 10:33:00,82.4,54.2,29.98,South,188,3.3,4.7,38,0.00,,,0.00,WUHU216HW,2013-05-15 17:33:00,
2013-05-15 10:39:00,82.4,55.8,29.98,South,184,2.4,4.0,40,0.00,,,0.00,WUHU216HW,2013-05-15 17:39:00,
2013-05-15 10:44:00,82.4,55.0,29.98,SSW,201,2.9,4.5,39,0.00,,,0.00,WUHU216HW,2013-05-15 17:44:00,
2013-05-15 10:49:00,82.4,56.4,29.98,SSW,192,2.8,3.8,41,0.00,,,0.00,WUHU216HW,2013-05-15 17:49:00,
2013-05-15 10:54:00,83.2,55.6,29.98,SSE,168,2.7,5.4,39,0.00,,,0.00,WUHU216HW,2013-05-15 17:54:00,
2013-05-15 10:59:00,84.4,56.8,29.98,South,174,2.8,4.7,39,0.00,,,0.00,WUHU216HW,2013-05-15 17:59:00,
2013-05-15 11:04:00,85.3,55.3,29.98,SSW,202,2.7,4.9,36,0.00,,,0.00,WUHU216HW,2013-05-15 18:04:00,
2013-05-15 11:09:00,85.7,56.3,29.98,SSW,199,2.7,4.3,37,0.00,,,0.00,WUHU216HW,2013-05-15 18:09:00,
2013-05-15 11:14:00,85.9,54.9,29.97,SSW,197,3.0,5.1,35,0.00,,,0.00,WUHU216HW,2013-05-15 18:14:00,
2013-05-15 11:19:00,85.7,56.3,29.97,South,191,2.8,4.7,37,0.00,,,0.00,WUHU216HW,2013-05-15 18:19:00,
2013-05-15 11:24:00,85.5,54.6,29.97,SSW,201,2.6,4.3,35,0.00,,,0.00,WUHU216HW,2013-05-15 18:24:00,
2013-05-15 11:29:00,85.3,56.0,29.97,WSW,246,2.3,4.0,37,0.00,,,0.00,WUHU216HW,2013-05-15 18:29:00,
2013-05-15 11:34:00,85.5,56.2,29.97,WSW,239,1.1,2.9,37,0.00,,,0.00,WUHU216HW,2013-05-15 18:34:00,
2013-05-15 11:39:00,85.9,56.5,29.97,SW,222,2.1,3.4,37,0.00,,,0.00,WUHU216HW,2013-05-15 18:39:00,
2013-05-15 11:44:00,85.7,54.0,29.97,SSW,208,3.1,4.7,34,0.00,,,0.00,WUHU216HW,2013-05-15 18:44:00,
2013-05-15 11:49:00,85.3,55.3,29.97,West,269,2.4,4.0,36,0.00,,,0.00,WUHU216HW,2013-05-15 18:49:00,
2013-05-15 11:54:00,85.5,54.6,29.97,SSW,211,2.1,3.8,35,0.00,,,0.00,WUHU216HW,2013-05-15 18:54:00,
2013-05-15 12:00:00,86.0,55.1,29.97,West,262,2.2,3.6,35,0.00,,,0.00,WUHU216HW,2013-05-15 19:00:00,
2013-05-15 12:05:00,86.2,55.3,29.97,WSW,242,2.1,4.3,35,0.00,,,0.00,WUHU216HW,2013-05-15 19:05:00,
2013-05-15 12:10:00,86.8,57.3,29.96,South,181,1.8,4.3,37,0.00,,,0.00,WUHU216HW,2013-05-15 19:10:00,
2013-05-15 12:15:00,87.1,55.2,29.96,WSW,247,3.0,6.3,34,0.00,,,0.00,WUHU216HW,2013-05-15 19:15:00,
2013-05-15 12:20:00,87.1,55.2,29.96,West,273,2.0,4.7,34,0.00,,,0.00,WUHU216HW,2013-05-15 19:20:00,
2013-05-15 12:25:00,87.8,55.8,29.96,West,275,2.3,5.8,34,0.00,,,0.00,WUHU216HW,2013-05-15 19:25:00,
2013-05-15 12:30:00,88.6,55.6,29.96,SW,219,2.2,3.6,33,0.00,,,0.00,WUHU216HW,2013-05-15 19:30:00,
2013-05-15 12:36:00,88.9,55.2,29.96,West,280,2.6,4.9,32,0.00,,,0.00,WUHU216HW,2013-05-15 19:36:00,
2013-05-15 12:41:00,88.9,53.6,29.95,WNW,282,2.7,5.6,30,0.00,,,0.00,WUHU216HW,2013-05-15 19:41:00,
2013-05-15 12:46:00,89.3,52.7,29.95,West,280,2.8,6.3,29,0.00,,,0.00,WUHU216HW,2013-05-15 19:46:00,
2013-05-15 12:52:00,88.9,53.6,29.95,WSW,255,2.3,3.6,30,0.00,,,0.00,WUHU216HW,2013-05-15 19:52:00,
2013-05-15 12:57:00,88.2,52.9,29.95,SSW,210,2.4,4.0,30,0.00,,,0.00,WUHU216HW,2013-05-15 19:57:00,
2013-05-15 13:02:00,88.0,54.4,29.95,WNW,287,2.4,4.7,32,0.00,,,0.00,WUHU216HW,2013-05-15 20:02:00,
2013-05-15 13:07:00,88.4,54.6,29.95,WNW,284,1.8,2.9,32,0.00,,,0.00,WUHU216HW,2013-05-15 20:07:00,
2013-05-15 13:12:00,88.6,54.8,29.95,SW,231,2.1,4.3,32,0.00,,,0.00,WUHU216HW,2013-05-15 20:12:00,
2013-05-15 13:17:00,89.3,55.4,29.95,West,275,2.7,6.0,32,0.00,,,0.00,WUHU216HW,2013-05-15 20:17:00,
2013-05-15 13:22:00,89.1,53.7,29.95,West,260,3.0,5.6,30,0.00,,,0.00,WUHU216HW,2013-05-15 20:22:00,
2013-05-15 13:27:00,89.3,52.7,29.95,West,274,3.8,6.5,29,0.00,,,0.00,WUHU216HW,2013-05-15 20:27:00,
2013-05-15 13:32:00,89.3,50.7,29.95,WNW,287,4.0,6.3,27,0.00,,,0.00,WUHU216HW,2013-05-15 20:32:00,
2013-05-15 13:38:00,89.1,51.6,29.94,WNW,303,3.8,6.7,28,0.00,,,0.00,WUHU216HW,2013-05-15 20:38:00,
2013-05-15 13:43:00,89.3,52.7,29.94,WNW,299,2.8,5.4,29,0.00,,,0.00,WUHU216HW,2013-05-15 20:43:00,
2013-05-15 13:48:00,90.0,53.5,29.94,SW,216,3.3,5.4,29,0.00,,,0.00,WUHU216HW,2013-05-15 20:48:00,
2013-05-15 13:53:00,90.7,51.8,29.94,WNW,288,4.5,8.5,27,0.00,,,0.00,WUHU216HW,2013-05-15 20:53:00,
2013-05-15 13:58:00,90.4,53.7,29.94,West,279,1.9,4.7,29,0.00,,,0.00,WUHU216HW,2013-05-15 20:58:00,
2013-05-15 14:03:00,90.5,53.9,29.93,WNW,292,2.9,4.9,29,0.00,,,0.00,WUHU216HW,2013-05-15 21:03:00,
2013-05-15 14:08:00,91.1,52.2,29.93,SW,230,2.6,4.5,27,0.00,,,0.00,WUHU216HW,2013-05-15 21:08:00,
2013-05-15 14:13:00,90.2,53.6,29.93,SW,224,2.7,5.1,29,0.00,,,0.00,WUHU216HW,2013-05-15 21:13:00,
2013-05-15 14:18:00,89.6,53.1,29.93,WSW,254,1.8,3.4,29,0.00,,,0.00,WUHU216HW,2013-05-15 21:18:00,
2013-05-15 14:23:00,90.0,53.5,29.92,West,269,3.1,4.7,29,0.00,,,0.00,WUHU216HW,2013-05-15 21:23:00,
2013-05-15 14:28:00,90.0,53.5,29.92,WNW,287,2.4,3.6,29,0.00,,,0.00,WUHU216HW,2013-05-15 21:28:00,
2013-05-15 14:33:00,90.0,53.5,29.92,West,272,3.6,6.5,29,0.00,,,0.00,WUHU216HW,2013-05-15 21:33:00,
2013-05-15 14:38:00,89.8,52.2,29.92,SSW,210,2.4,4.7,28,0.00,,,0.00,WUHU216HW,2013-05-15 21:38:00,
2013-05-15 14:43:00,90.4,53.7,29.92,WNW,295,2.6,6.0,29,0.00,,,0.00,WUHU216HW,2013-05-15 21:43:00,
2013-05-15 14:48:00,90.5,55.0,29.92,West,280,2.2,5.6,30,0.00,,,0.00,WUHU216HW,2013-05-15 21:48:00,
2013-05-15 14:53:00,90.7,54.1,29.92,WSW,257,2.7,4.7,29,0.00,,,0.00,WUHU216HW,2013-05-15 21:53:00,
2013-05-15 14:58:00,90.2,51.4,29.91,WNW,300,1.5,3.4,27,0.00,,,0.00,WUHU216HW,2013-05-15 21:58:00,
2013-05-15 15:03:00,90.9,54.2,29.91,SW,235,2.3,4.9,29,0.00,,,0.00,WUHU216HW,2013-05-15 22:03:00,
2013-05-15 15:08:00,91.8,50.6,29.91,West,274,2.0,5.1,25,0.00,,,0.00,WUHU216HW,2013-05-15 22:08:00,
2013-05-15 15:13:00,91.4,52.5,29.91,WNW,287,2.9,5.4,27,0.00,,,0.00,WUHU216HW,2013-05-15 22:13:00,
2013-05-15 15:18:00,92.2,53.1,29.90,West,272,2.9,5.1,27,0.00,,,0.00,WUHU216HW,2013-05-15 22:18:00,
2013-05-15 15:23:00,92.9,53.6,29.90,West,265,2.3,4.7,27,0.00,,,0.00,WUHU216HW,2013-05-15 22:23:00,
2013-05-15 15:28:00,92.9,53.6,29.90,West,271,2.4,5.4,27,0.00,,,0.00,WUHU216HW,2013-05-15 22:28:00,
2013-05-15 15:33:00,92.5,52.3,29.90,WSW,258,2.5,4.7,26,0.00,,,0.00,WUHU216HW,2013-05-15 22:33:00,
2013-05-15 15:38:00,92.2,52.0,29.90,WNW,297,4.7,8.3,26,0.00,,,0.00,WUHU216HW,2013-05-15 22:38:00,
2013-05-15 15:44:00,92.0,49.7,29.90,WNW,289,3.5,7.4,24,0.00,,,0.00,WUHU216HW,2013-05-15 22:44:00,
2013-05-15 15:49:00,91.4,49.2,29.90,WNW,302,4.3,6.3,24,0.00,,,0.00,WUHU216HW,2013-05-15 22:49:00,
2013-05-15 15:54:00,91.4,50.3,29.90,WNW,284,2.4,4.7,25,0.00,,,0.00,WUHU216HW,2013-05-15 22:54:00,
2013-05-15 15:59:00,91.4,48.2,29.90,WNW,302,2.6,5.4,23,0.00,,,0.00,WUHU216HW,2013-05-15 22:59:00,
2013-05-15 16:04:00,91.4,49.2,29.90,WNW,303,4.1,6.9,24,0.00,,,0.00,WUHU216HW,2013-05-15 23:04:00,
2013-05-15 16:09:00,91.8,50.6,29.90,WNW,289,3.2,6.3,25,0.00,,,0.00,WUHU216HW,2013-05-15 23:09:00,
2013-05-15 16:14:00,91.4,49.2,29.89,WNW,303,4.0,6.3,24,0.00,,,0.00,WUHU216HW,2013-05-15 23:14:00,
2013-05-15 16:19:00,92.0,51.8,29.89,WNW,284,3.4,6.7,26,0.00,,,0.00,WUHU216HW,2013-05-15 23:19:00,
2013-05-15 16:24:00,91.8,49.5,29.89,NW,304,3.2,5.8,24,0.00,,,0.00,WUHU216HW,2013-05-15 23:24:00,
2013-05-15 16:29:00,91.4,49.2,29.89,WNW,283,2.5,4.7,24,0.00,,,0.00,WUHU216HW,2013-05-15 23:29:00,
2013-05-15 16:34:00,91.4,48.2,29.89,NW,304,4.0,6.0,23,0.00,,,0.00,WUHU216HW,2013-05-15 23:34:00,
2013-05-15 16:39:00,91.1,48.9,29.89,WNW,294,3.2,4.9,24,0.00,,,0.00,WUHU216HW,2013-05-15 23:39:00,
2013-05-15 16:44:00,90.7,46.5,29.89,NW,319,2.0,5.4,22,0.00,,,0.00,WUHU216HW,2013-05-15 23:44:00,
2013-05-15 16:50:00,90.4,48.3,29.89,NW,320,1.8,3.4,24,0.00,,,0.00,WUHU216HW,2013-05-15 23:50:00,
2013-05-15 16:55:00,90.4,47.3,29.89,NW,308,3.4,7.6,23,0.00,,,0.00,WUHU216HW,2013-05-15 23:55:00,
2013-05-15 17:00:00,90.4,47.3,29.89,NW,325,2.3,4.3,23,0.00,,,0.00,WUHU216HW,2013-05-16 00:00:00,
2013-05-15 17:05:00,90.4,48.3,29.88,NW,323,3.9,7.6,24,0.00,,,0.00,WUHU216HW,2013-05-16 00:05:00,
2013-05-15 17:10:00,90.2,47.1,29.88,WNW,302,3.1,6.3,23,0.00,,,0.00,WUHU216HW,2013-05-16 00:10:00,
2013-05-15 17:15:00,90.0,48.0,29.89,NNW,345,1.6,2.9,24,0.00,,,0.00,WUHU216HW,2013-05-16 00:15:00,
2013-05-15 17:20:00,89.6,46.6,29.89,NNW,337,2.4,4.3,23,0.00,,,0.00,WUHU216HW,2013-05-16 00:20:00,
2013-05-15 17:25:00,89.5,46.4,29.88,NW,311,3.4,4.9,23,0.00,,,0.00,WUHU216HW,2013-05-16 00:25:00,
2013-05-15 17:30:00,89.1,45.1,29.89,NNW,331,1.1,4.3,22,0.00,,,0.00,WUHU216HW,2013-05-16 00:30:00,
2013-05-15 17:35:00,88.9,46.0,29.88,NW,315,1.9,4.0,23,0.00,,,0.00,WUHU216HW,2013-05-16 00:35:00,
2013-05-15 17:40:00,88.9,46.0,29.88,NNW,331,2.0,4.9,23,0.00,,,0.00,WUHU216HW,2013-05-16 00:40:00,
2013-05-15 17:45:00,88.7,45.9,29.87,NW,325,1.5,2.5,23,0.00,,,0.00,WUHU216HW,2013-05-16 00:45:00,
2013-05-15 17:50:00,88.9,47.1,29.87,NW,323,2.2,4.7,24,0.00,,,0.00,WUHU216HW,2013-05-16 00:50:00,
2013-05-15 17:55:00,88.9,46.0,29.87,NW,309,2.5,4.5,23,0.00,,,0.00,WUHU216HW,2013-05-16 00:55:00,
2013-05-15 18:00:00,88.7,47.0,29.87,NW,314,3.2,4.9,24,0.00,,,0.00,WUHU216HW,2013-05-16 01:00:00,
2013-05-15 18:05:00,88.2,46.5,29.87,NW,307,2.9,3.8,24,0.00,,,0.00,WUHU216HW,2013-05-16 01:05:00,
2013-05-15 18:10:00,87.7,46.0,29.87,NW,308,4.0,6.7,24,0.00,,,0.00,WUHU216HW,2013-05-16 01:10:00,
2013-05-15 18:16:00,87.1,46.6,29.87,NW,318,2.4,4.0,25,0.00,,,0.00,WUHU216HW,2013-05-16 01:16:00,
2013-05-15 18:21:00,87.1,46.6,29.87,WNW,296,3.0,4.0,25,0.00,,,0.00,WUHU216HW,2013-05-16 01:21:00,
2013-05-15 18:26:00,87.7,47.1,29.87,WNW,302,2.7,4.7,25,0.00,,,0.00,WUHU216HW,2013-05-16 01:26:00,
2013-05-15 18:31:00,87.8,47.3,29.86,WNW,287,3.0,4.3,25,0.00,,,0.00,WUHU216HW,2013-05-16 01:31:00,
2013-05-15 18:36:00,88.0,47.4,29.86,WNW,300,2.5,3.4,25,0.00,,,0.00,WUHU216HW,2013-05-16 01:36:00,
2013-05-15 18:41:00,87.8,47.3,29.86,WNW,303,2.3,2.9,25,0.00,,,0.00,WUHU216HW,2013-05-16 01:41:00,
2013-05-15 18:46:00,87.8,47.3,29.86,NW,315,2.5,2.9,25,0.00,,,0.00,WUHU216HW,2013-05-16 01:46:00,
2013-05-15 19:05:00,86.4,49.2,29.86,WNW,297,1.8,2.7,28,0.00,,,0.00,WUHU216HW,2013-05-16 02:05:00,
2013-05-15 19:10:00,86.2,50.2,29.86,NW,304,2.7,3.6,29,0.00,,,0.00,WUHU216HW,2013-05-16 02:10:00,
2013-05-15 19:15:00,86.0,50.0,29.86,WNW,301,3.0,3.8,29,0.00,,,0.00,WUHU216HW,2013-05-16 02:15:00,
2013-05-15 19:20:00,86.0,51.1,29.86,WNW,291,3.0,4.0,30,0.00,,,0.00,WUHU216HW,2013-05-16 02:20:00,
2013-05-15 19:25:00,86.2,51.3,29.86,WNW,296,2.2,4.0,30,0.00,,,0.00,WUHU216HW,2013-05-16 02:25:00,
2013-05-15 19:30:00,85.7,50.8,29.86,NW,307,2.9,4.0,30,0.00,,,0.00,WUHU216HW,2013-05-16 02:30:00,
2013-05-15 19:35:00,84.2,48.4,29.86,NW,312,3.1,4.0,29,0.00,,,0.00,WUHU216HW,2013-05-16 02:35:00,
2013-05-15 19:40:00,83.5,46.7,29.86,NW,316,3.3,6.5,28,0.00,,,0.00,WUHU216HW,2013-05-16 02:40:00,
2013-05-15 19:45:00,82.8,46.1,29.86,NW,311,3.8,5.8,28,0.00,,,0.00,WUHU216HW,2013-05-16 02:45:00,
2013-05-15 19:50:00,82.3,46.7,29.86,NW,312,3.1,5.6,29,0.00,,,0.00,WUHU216HW,2013-05-16 02:50:00,
2013-05-15 19:55:00,81.7,46.3,29.86,NW,316,2.2,2.7,29,0.00,,,0.00,WUHU216HW,2013-05-16 02:55:00,
2013-05-15 20:00:00,81.0,44.6,29.87,NW,319,2.2,3.4,28,0.00,,,0.00,WUHU216HW,2013-05-16 03:00:00,
2013-05-15 20:05:00,80.8,44.5,29.86,NW,320,2.3,4.5,28,0.00,,,0.00,WUHU216HW,2013-05-16 03:05:00,
2013-05-15 20:10:00,80.6,44.4,29.87,NW,313,1.8,4.5,28,0.00,,,0.00,WUHU216HW,2013-05-16 03:10:00,
2013-05-15 20:15:00,80.5,44.2,29.87,NW,317,1.7,2.9,28,0.00,,,0.00,WUHU216HW,2013-05-16 03:15:00,
2013-05-15 20:20:00,80.5,44.2,29.87,NW,315,2.7,2.9,28,0.00,,,0.00,WUHU216HW,2013-05-16 03:20:00,
2013-05-15 21:05:00,75.6,45.1,29.88,NNW,331,0.5,1.1,34,0.00,,,0.00,WUHU216HW,2013-05-16 04:05:00,
2013-05-15 21:10:00,75.2,44.8,29.89,NW,308,0.7,1.3,34,0.00,,,0.00,WUHU216HW,2013-05-16 04:10:00,
2013-05-15 21:15:00,75.1,45.4,29.89,NNW,336,0.8,1.3,35,0.00,,,0.00,WUHU216HW,2013-05-16 04:15:00,
2013-05-15 21:20:00,74.9,46.7,29.89,NNW,337,0.8,1.8,37,0.00,,,0.00,WUHU216HW,2013-05-16 04:20:00,
2013-05-15 21:25:00,74.7,46.5,29.89,NNW,337,0.8,1.8,37,0.00,,,0.00,WUHU216HW,2013-05-16 04:25:00,
2013-05-15 21:30:00,74.7,46.5,29.89,NNW,338,1.1,1.8,37,0.00,,,0.00,WUHU216HW,2013-05-16 04:30:00,
2013-05-15 22:05:00,72.5,49.9,29.91,NW,325,1.6,2.9,45,0.00,,,0.00,WUHU216HW,2013-05-16 05:05:00,
2013-05-15 22:10:00,72.2,50.1,29.91,NW,316,3.3,4.5,46,0.00,,,0.00,WUHU216HW,2013-05-16 05:10:00,
2013-05-15 22:15:00,71.8,50.4,29.91,NW,317,1.8,3.6,47,0.00,,,0.00,WUHU216HW,2013-05-16 05:15:00,
2013-05-15 22:20:00,71.5,50.7,29.92,NW,316,2.2,4.9,48,0.00,,,0.00,WUHU216HW,2013-05-16 05:20:00,
2013-05-15 22:25:00,71.3,50.5,29.92,NW,323,2.6,4.5,48,0.00,,,0.00,WUHU216HW,2013-05-16 05:25:00,
2013-05-15 22:30:00,71.1,50.3,29.92,NW,319,1.5,3.4,48,0.00,,,0.00,WUHU216HW,2013-05-16 05:30:00,
2013-05-15 22:35:00,70.9,50.2,29.92,NNW,332,1.4,3.6,48,0.00,,,0.00,WUHU216HW,2013-05-16 05:35:00,
2013-05-15 22:40:00,70.6,49.9,29.92,NNW,332,1.0,1.8,48,0.00,,,0.00,WUHU216HW,2013-05-16 05:40:00,
2013-05-15 22:45:00,70.4,49.7,29.92,NNW,332,1.0,2.5,48,0.00,,,0.00,WUHU216HW,2013-05-16 05:45:00,
2013-05-15 22:50:00,70.2,49.5,29.92,NNW,332,1.7,4.9,48,0.00,,,0.00,WUHU216HW,2013-05-16 05:50:00,
2013-05-15 22:55:00,69.8,49.2,29.92,NW,322,2.0,3.4,48,0.00,,,0.00,WUHU216HW,2013-05-16 05:55:00,
2013-05-15 23:00:00,69.8,49.2,29.92,NW,318,1.1,4.0,48,0.00,,,0.00,WUHU216HW,2013-05-16 06:00:00,
2013-05-15 23:05:00,69.7,49.1,29.92,NNW,338,0.9,1.8,48,0.00,,,0.00,WUHU216HW,2013-05-16 06:05:00,
2013-05-15 23:10:00,69.3,48.2,29.92,NW,324,1.1,1.8,47,0.00,,,0.00,WUHU216HW,2013-05-16 06:10:00,
2013-05-15 23:15:00,68.9,47.8,29.92,NW,304,3.3,5.4,47,0.00,,,0.00,WUHU216HW,2013-05-16 06:15:00,
2013-05-15 23:20:00,68.6,47.5,29.92,NW,320,2.5,4.7,47,0.00,,,0.00,WUHU216HW,2013-05-16 06:20:00,
2013-05-15 23:25:00,68.2,47.8,29.92,North,350,0.8,2.5,48,0.00,,,0.00,WUHU216HW,2013-05-16 06:25:00,
2013-05-15 23:30:00,67.9,47.4,29.92,NNE,12,0.6,1.6,48,0.00,,,0.00,WUHU216HW,2013-05-16 06:30:00,
2013-05-15 23:35:00,67.5,47.1,29.92,NW,319,0.8,1.6,48,0.00,,,0.00,WUHU216HW,2013-05-16 06:35:00,
2013-05-15 23:40:00,67.3,47.5,29.92,NW,326,0.9,2.9,49,0.00,,,0.00,WUHU216HW,2013-05-16 06:40:00,
2013-05-15 23:45:00,67.0,47.8,29.92,North,354,1.0,2.9,50,0.00,,,0.00,WUHU216HW,2013-05-16 06:45:00,
2013-05-15 23:50:00,66.4,47.4,29.92,NNE,33,0.4,1.1,50,0.00,,,0.00,WUHU216HW,2013-05-16 06:50:00,
2013-05-15 23:55:00,66.1,47.0,29.93,NE,56,0.4,0.7,50,0.00,,,0.00,WUHU216HW,2013-05-16 06:55:00,